Time;durP1;ratioP1;P1;durP2;ratioP2;P2;SDS_P1;SDS_P2;PMS_P1;PMS_P2;Temp;Humidity;BMP_temperature;BMP_pressure;BME280_temperature;BME280_humidity;BME280_pressure;Samples;Min_cycle;Max_cycle;Signal;HPM_P1;HPM_P2
2022/03/09 00:02:34;;;;;;;4.95;3.67;;;;;;;;;;6178392;23;20029;-92
2022/03/09 00:05:00;;;;;;;5.95;3.40;;;;;;;;;;6180212;23;20024;-92
2022/03/09 00:07:27;;;;;;;5.22;3.50;;;;;;;;;;6152584;23;20016;-91
2022/03/09 00:13:23;;;;;;;9.82;3.72;;;;;;;;;;6203713;23;20031;-90
2022/03/09 00:15:57;;;;;;;6.50;3.70;;;;;;;;;;6207606;23;20027;-92
2022/03/09 00:18:26;;;;;;;;;;;;;;;;;;6153417;23;20032;-89
2022/03/09 00:20:52;;;;;;;4.35;3.53;;;;;;;;;;6179071;23;20001;-90
2022/03/09 00:23:18;;;;;;;6.63;3.60;;;;;;;;;;6128008;23;20023;-89
2022/03/09 00:28:23;;;;;;;4.55;3.83;;;;;;;;;;6248714;23;20812;-91
2022/03/09 00:31:01;;;;;;;8.90;4.80;;;;;;;;;;6227281;23;20028;-89
2022/03/09 00:33:46;;;;;;;9.35;4.25;;;;;;;;;;6240795;23;20067;-90
2022/03/09 00:36:21;;;;;;;7.07;4.63;;;;;;;;;;6171552;23;20158;-90
2022/03/09 00:38:47;;;;;;;6.18;4.10;;;;;;;;;;6215560;23;20098;-89
2022/03/09 00:41:20;;;;;;;6.43;4.18;;;;;;;;;;6189854;23;20020;-90
2022/03/09 00:43:46;;;;;;;8.75;4.05;;;;;;;;;;6212228;23;20442;-91
2022/03/09 00:46:12;;;;;;;4.97;4.03;;;;;;;;;;6211072;23;20051;-90
2022/03/09 00:48:44;;;;;;;8.13;4.18;;;;;;;;;;6169891;23;20020;-90
2022/03/09 00:51:16;;;;;;;8.10;3.78;;;;;;;;;;6178753;22;20020;-90
2022/03/09 00:53:42;;;;;;;5.25;3.67;;;;;;;;;;6210350;23;20031;-90
2022/03/09 00:58:47;;;;;;;6.72;4.10;;;;;;;;;;6209397;23;20104;-91
2022/03/09 01:01:13;;;;;;;6.05;3.95;;;;;;;;;;6157116;23;20031;-91
2022/03/09 01:03:40;;;;;;;5.93;3.95;;;;;;;;;;6181318;23;20021;-92
2022/03/09 01:09:10;;;;;;;6.95;4.35;;;;;;;;;;6208735;23;20456;-90
2022/03/09 01:12:17;;;;;;;8.27;4.55;;;;;;;;;;6156823;23;20020;-90
2022/03/09 01:15:37;;;;;;;7.75;4.40;;;3.10;99.90;;;;;;6181779;23;20074;-89
2022/03/09 01:20:42;;;;;;;7.32;5.05;;;;;;;;;;6199751;23;20024;-92
2022/03/09 01:23:24;;;;;;;7.03;4.50;;;;;;;;;;6151745;23;20465;-90
2022/03/09 01:25:59;;;;;;;6.18;4.88;;;;;;;;;;6155753;23;20108;-91
2022/03/09 01:28:28;;;;;;;9.23;4.65;;;;;;;;;;6154393;23;20044;-91
2022/03/09 01:31:12;;;;;;;6.43;4.60;;;;;;;;;;6180992;23;20062;-91
2022/03/09 01:33:51;;;;;;;6.15;4.65;;;;;;;;;;6129288;23;20054;-92
2022/03/09 01:44:05;;;;;;;7.10;4.90;;;;;;;;;;6125852;23;20353;-91
2022/03/09 01:46:31;;;;;;;7.22;4.32;;;;;;;;;;6118359;23;20026;-92
2022/03/09 01:48:57;;;;;;;6.68;4.68;;;;;;;;;;6118035;23;20050;-92
2022/03/09 01:51:24;;;;;;;10.00;4.65;;;;;;;;;;6118297;23;20030;-92
2022/03/09 01:57:20;;;;;;;7.50;4.90;;;;;;;;;;6209175;23;20023;-93
2022/03/09 02:03:57;;;;;;;6.28;4.30;;;2.40;99.90;;;;;;6206886;23;20539;-91
2022/03/09 02:06:24;;;;;;;7.70;5.10;;;;;;;;;;6157990;23;20029;-92
2022/03/09 02:12:04;;;;;;;8.38;4.93;;;;;;;;;;6207486;23;20031;-90
2022/03/09 02:14:37;;;;;;;9.65;7.03;;;;;;;;;;6157437;23;20016;-91
2022/03/09 02:17:24;;;;;;;6.65;4.90;;;;;;;;;;6181267;23;20337;-91
2022/03/09 02:19:51;;;;;;;7.40;5.00;;;;;;;;;;6034023;22;20062;-91
2022/03/09 02:32:53;;;;;;;7.45;5.00;;;;;;;;;;6269208;22;20681;-92
2022/03/09 02:39:02;;;;;;;7.30;5.30;;;;;;;;;;6239669;22;20389;-92
2022/03/09 02:41:33;;;;;;;10.43;5.57;;;;;;;;;;6239763;22;20065;-90
2022/03/09 02:44:14;;;;;;;8.88;5.47;;;;;;;;;;6242707;22;20027;-92
2022/03/09 03:03:35;;;;;;;7.97;5.90;;;;;;;;;;6253920;23;20050;-90
2022/03/09 03:27:35;;;;;;;10.88;5.45;;;;;;;;;;6239966;23;20026;-91
2022/03/09 03:30:26;;;;;;;9.57;5.88;;;;;;;;;;6209484;23;20020;-90
2022/03/09 03:32:52;;;;;;;7.97;5.57;;;;;;;;;;6235575;23;20028;-91
2022/03/09 03:55:57;;;;;;;7.43;5.40;;;;;;;;;;6234730;22;20132;-92
2022/03/09 04:12:09;;;;;;;13.68;6.18;;;;;;;;;;6209861;23;20054;-91
2022/03/09 04:14:38;;;;;;;8.75;6.35;;;;;;;;;;6177968;23;20056;-91
2022/03/09 04:17:10;;;;;;;9.65;6.32;;;;;;;;;;6156892;23;20027;-91
2022/03/09 04:27:04;;;;;;;8.77;6.30;;;;;;;;;;6231077;22;20043;-91
2022/03/09 04:37:06;;;;;;;7.95;5.78;;;;;;;;;;6149417;23;20017;-91
2022/03/09 04:39:53;;;;;;;8.07;6.10;;;1.30;99.90;;;;;;6118393;23;20037;-90
2022/03/09 04:42:34;;;;;;;8.02;6.13;;;;;;;;;;6146000;23;20018;-90
2022/03/09 04:45:25;;;;;;;8.60;5.95;;;1.20;99.90;;;;;;6119446;23;20029;-90
2022/03/09 04:48:06;;;;;;;10.57;6.60;;;;;;;;;;6071858;23;20382;-88
2022/03/09 04:53:58;;;;;;;9.93;6.47;;;;;;;;;;6145323;23;20133;-89
2022/03/09 04:56:43;;;;;;;9.30;5.93;;;;;;;;;;6122195;23;20112;-90
2022/03/09 04:59:18;;;;;;;7.75;6.05;;;;;;;;;;6118147;23;20032;-91
2022/03/09 05:01:57;;;;;;;9.25;6.18;;;;;;;;;;6097077;23;20064;-89
2022/03/09 05:07:11;;;;;;;10.00;6.35;;;;;;;;;;6120523;23;20030;-89
2022/03/09 05:09:49;;;;;;;10.57;6.00;;;;;;;;;;6094816;23;20473;-89
2022/03/09 05:12:16;;;;;;;9.15;6.10;;;;;;;;;;6135045;23;20028;-90
2022/03/09 05:14:43;;;;;;;10.50;6.43;;;;;;;;;;6152724;23;20425;-89
2022/03/09 05:17:11;;;;;;;10.02;6.65;;;;;;;;;;6167808;23;20029;-91
2022/03/09 05:19:37;;;;;;;11.57;6.80;;;;;;;;;;6202317;23;20028;-90
2022/03/09 05:25:06;;;;;;;9.82;6.85;;;;;;;;;;6239746;23;20027;-89
2022/03/09 05:27:32;;;;;;;10.10;6.50;;;;;;;;;;6209422;23;20030;-90
2022/03/09 05:29:58;;;;;;;12.32;5.93;;;;;;;;;;6209939;23;20016;-89
2022/03/09 05:32:25;;;;;;;12.85;6.43;;;;;;;;;;6212197;23;20452;-90
2022/03/09 05:34:51;;;;;;;14.70;7.45;;;;;;;;;;6236199;23;20020;-89
2022/03/09 05:37:18;;;;;;;11.90;8.43;;;;;;;;;;6209645;23;20020;-89
2022/03/09 05:39:50;;;;;;;17.10;8.82;;;;;;;;;;6208959;23;20068;-90
2022/03/09 05:45:25;;;;;;;15.85;8.82;;;;;;;;;;6235350;23;20019;-88
2022/03/09 05:51:11;;;;;;;16.40;9.55;;;;;;;;;;6220761;23;20024;-90
2022/03/09 05:56:59;;;;;;;20.98;10.73;;;;;;;;;;6265732;22;20863;-90
2022/03/09 05:59:25;;;;;;;16.02;10.38;;;;;;;;;;6264173;22;20016;-90
2022/03/09 06:02:18;;;;;;;16.38;10.65;;;;;;;;;;6226257;22;20024;-89
2022/03/09 06:10:36;;;;;;;14.80;9.80;;;;;;;;;;6250091;22;20031;-90
2022/03/09 06:13:02;;;;;;;15.27;9.85;;;;;;;;;;6240608;22;20026;-90
2022/03/09 06:15:44;;;;;;;15.52;11.60;;;;;;;;;;6215928;22;20051;-88
2022/03/09 06:26:11;;;;;;;15.57;10.73;;;;;;;;;;6209180;23;20021;-89
2022/03/09 06:28:37;;;;;;;16.08;9.82;;;;;;;;;;6168324;23;20029;-88
2022/03/09 06:31:04;;;;;;;16.77;9.05;;;;;;;;;;6214400;22;20035;-90
2022/03/09 06:37:14;;;;;;;12.73;7.88;;;1.50;99.90;;;;;;6242723;22;20723;-90
2022/03/09 06:46:39;;;;;;;13.05;8.75;;;1.60;99.90;;;;;;6185978;23;19916;-90
2022/03/09 06:49:09;;;;;;;12.65;8.15;;;;;;;;;;6186659;23;20017;-89
2022/03/09 06:51:54;;;;;;;16.35;8.35;;;;;;;;;;6184843;23;20364;-89
2022/03/09 06:54:20;;;;;;;;;;;;;;;;;;6162742;23;20104;-89
2022/03/09 06:56:47;;;;;;;14.57;8.80;;;;;;;;;;6157025;23;19947;-89
2022/03/09 06:59:13;;;;;;;13.93;9.38;;;;;;;;;;6159681;23;20016;-89
2022/03/09 07:01:42;;;;;;;15.82;8.30;;;;;;;;;;6212529;23;20123;-90
2022/03/09 07:04:46;;;;;;;14.80;9.60;;;;;;;;;;6209014;23;20024;-89
2022/03/09 07:07:15;;;;;;;13.80;9.25;;;;;;;;;;6207811;23;20029;-89
2022/03/09 07:09:50;;;;;;;14.07;8.80;;;;;;;;;;6187156;23;20046;-89
2022/03/09 07:12:26;;;;;;;15.27;8.20;;;;;;;;;;6181540;23;20021;-89
2022/03/09 07:15:05;;;;;;;15.35;8.48;;;;;;;;;;6160566;23;20526;-90
2022/03/09 07:17:47;;;;;;;12.77;7.85;;;;;;;;;;6183858;23;20082;-91
2022/03/09 07:20:26;;;;;;;11.43;7.65;;;;;;;;;;6213257;23;20810;-90
2022/03/09 07:29:50;;;;;;;9.98;6.80;;;;;;;;;;6246666;22;20071;-88
2022/03/09 07:32:16;;;;;;;9.38;6.47;;;;;;;;;;6230798;22;20103;-89
2022/03/09 07:40:14;;;;;;;12.63;6.03;;;;;;;;;;6245396;22;20030;-91
2022/03/09 07:51:08;;;;;;;10.88;6.95;;;;;;;;;;6231868;23;20020;-91
2022/03/09 07:57:28;;;;;;;12.85;6.90;;;;;;;;;;6183727;23;20171;-91
2022/03/09 08:00:01;;;;;;;9.93;6.65;;;;;;;;;;6206609;23;20457;-90
2022/03/09 08:02:28;;;;;;;10.63;6.72;;;;;;;;;;6181357;23;20025;-91
2022/03/09 08:05:10;;;;;;;9.43;6.03;;;;;;;;;;6133270;23;20067;-89
2022/03/09 08:07:55;;;;;;;11.23;6.28;;;;;;;;;;6156640;23;20464;-90
2022/03/09 08:10:21;;;;;;;11.07;6.40;;;;;;;;;;6182318;23;20505;-89
2022/03/09 08:18:11;;;;;;;9.18;6.63;;;;;;;;;;6212265;23;20024;-91
2022/03/09 08:28:02;;;;;;;11.02;6.85;;;;;;;;;;6238407;23;20051;-90
2022/03/09 08:30:28;;;;;;;9.98;6.88;;;;;;;;;;6239508;23;20024;-92
2022/03/09 08:35:23;;;;;;;11.90;6.88;;;;;;;;;;6229678;23;20349;-90
2022/03/09 08:37:49;;;;;;;13.60;7.15;;;;;;;;;;6185695;23;20107;-91
2022/03/09 08:40:27;;;;;;;9.35;6.32;;;;;;;;;;6211893;23;20089;-92
2022/03/09 08:48:06;;;;;;;11.77;6.43;;;;;;;;;;6186343;22;20024;-92
2022/03/09 08:51:21;;;;;;;12.23;7.45;;;;;;;;;;6159928;23;20083;-91
2022/03/09 09:14:02;;;;;;;10.63;6.68;;;;;;;;;;6227671;22;20043;-93
2022/03/09 09:26:06;;;;;;;9.57;6.80;;;;;;;;;;6208829;23;20106;-94
2022/03/09 09:28:32;;;;;;;11.30;7.13;;;;;;;;;;6155374;23;20039;-92
2022/03/09 09:47:54;;;;;;;10.77;6.63;;;;;;;;;;6230675;22;20024;-94
2022/03/09 10:22:23;;;;;;;13.00;7.20;;;;;;;;;;6213614;23;20107;-92
2022/03/09 10:25:19;;;;;;;14.25;6.95;;;;;;;;;;6185920;22;20029;-93
2022/03/09 10:31:59;;;;;;;;;;;;;;;;;;;;;
2022/03/09 10:38:15;;;;;;;8.23;6.90;;;;;;;;;;6180179;23;20035;-94
2022/03/09 10:44:16;;;;;;;11.63;7.13;;;;;;;;;;6153124;23;20032;-93
2022/03/09 10:50:07;;;;;;;9.88;7.10;;;;;;;;;;6164317;22;20027;-94
2022/03/09 10:53:12;;;;;;;;;;;;;;;;;;;;;
2022/03/09 11:13:03;;;;;;;10.20;7.75;;;;;;;;;;6121015;23;20131;-95
2022/03/09 11:27:53;;;;;;;10.88;7.07;;;;;;;;;;6229565;22;20104;-93
2022/03/09 11:44:44;;;;;;;9.50;7.38;;;;;;;;;;6274921;22;20015;-93
2022/03/09 12:05:19;;;;;;;;;;;;;;;;;;;;;
2022/03/09 12:07:57;;;;;;;9.75;7.53;;;;;;;;;;6154297;23;20049;-93
2022/03/09 12:13:54;;;;;;;12.57;7.40;;;;;;;;;;6254471;22;20035;-96
2022/03/09 12:16:29;;;;;;;10.75;7.20;;;;;;;;;;6240552;22;20027;-96
2022/03/09 12:21:49;;;;;;;;;;;;;;;;;;;;;
2022/03/09 12:24:22;;;;;;;11.57;8.35;;;;;;;;;;6159685;23;20028;-95
2022/03/09 12:39:52;;;;;;;;;;;;;;;;;;6270483;22;20339;-95
2022/03/09 12:45:06;;;;;;;10.75;7.57;;;;;;;;;;6224956;22;20031;-92
2022/03/09 13:14:47;;;;;;;8.60;6.85;;;;;;;;;;6218536;23;20108;-93
2022/03/09 13:19:58;;;;;;;10.88;7.15;;;;;;;;;;6238034;22;20031;-94
2022/03/09 13:48:01;;;;;;;9.15;7.57;;;;;;;;;;6177678;23;20031;-95
2022/03/09 13:54:12;;;;;;;8.95;6.80;;;;;;;;;;6211457;23;20031;-93
2022/03/09 14:11:01;;;;;;;9.75;6.65;;;;;;;;;;6225716;23;20180;-93
2022/03/09 14:14:07;;;;;;;11.73;7.60;;;;;;;;;;6185524;23;20087;-92
2022/03/09 14:17:15;;;;;;;11.63;6.68;;;;;;;;;;6219957;22;20028;-92
2022/03/09 14:20:06;;;;;;;13.38;6.38;;;;;;;;;;6185954;23;20016;-94
2022/03/09 14:25:42;;;;;;;16.77;6.95;;;;;;;;;;6238434;22;20769;-93
2022/03/09 14:28:41;;;;;;;7.47;6.13;;;;;;;;;;6197927;22;20055;-93
2022/03/09 14:37:11;;;;;;;8.55;6.90;;;;;;;;;;6227149;23;20043;-93
2022/03/09 14:39:48;;;;;;;;;;;;;;;;;;;;;
2022/03/09 14:43:33;;;;;;;13.02;7.00;;;12.70;95.50;;;;;;6164119;23;20476;-93
2022/03/09 14:55:46;;;;;;;7.60;6.35;;;;;;;;;;6236786;23;20035;-94
2022/03/09 15:04:27;;;;;;;11.57;8.32;;;;;;;;;;6242128;23;20031;-94
2022/03/09 15:06:59;;;;;;;8.73;7.25;;;;;;;;;;6183254;23;20028;-92
2022/03/09 15:13:13;;;;;;;9.23;7.60;;;;;;;;;;6229134;23;20522;-95
2022/03/09 15:15:40;;;;;;;11.68;6.63;;;;;;;;;;6181976;23;20876;-87
2022/03/09 15:21:21;;;;;;;7.38;6.60;;;;;;;;;;6128311;23;20032;-86
2022/03/09 15:24:12;;;;;;;9.55;6.90;;;;;;;;;;6176855;22;20021;-87
2022/03/09 15:30:24;;;;;;;8.93;6.72;;;;;;;;;;6234223;23;20027;-88
2022/03/09 15:32:51;;;;;;;10.15;6.68;;;;;;;;;;6219985;23;20035;-87
2022/03/09 15:35:17;;;;;;;10.82;6.47;;;;;;;;;;6212059;23;20039;-88
2022/03/09 15:37:44;;;;;;;7.82;6.75;;;;;;;;;;6163349;23;20027;-88
2022/03/09 15:40:10;;;;;;;8.25;7.00;;;;;;;;;;6190037;23;20293;-87
2022/03/09 15:42:38;;;;;;;11.68;6.57;;;;;;;;;;6189360;23;20444;-88
2022/03/09 15:45:07;;;;;;;9.10;6.90;;;;;;;;;;6241698;23;20020;-87
2022/03/09 15:47:34;;;;;;;9.32;7.00;;;;;;;;;;6187880;23;20054;-87
2022/03/09 15:50:01;;;;;;;13.18;7.30;;;;;;;;;;6214467;23;20019;-88
2022/03/09 15:52:29;;;;;;;8.80;6.90;;;;;;;;;;6211940;23;20024;-88
2022/03/09 15:55:08;;;;;;;8.40;6.63;;;;;;;;;;6239433;23;20016;-88
2022/03/09 15:57:37;;;;;;;11.43;6.95;;;;;;;;;;6238759;23;20027;-88
2022/03/09 16:00:04;;;;;;;8.35;7.00;;;;;;;;;;6164640;23;20059;-88
2022/03/09 16:02:49;;;;;;;11.98;7.22;;;;;;;;;;6188673;23;20135;-89
2022/03/09 16:05:15;;;;;;;;;;;;;;;;;;6164457;23;20057;-87
2022/03/09 16:07:45;;;;;;;18.42;6.95;;;;;;;;;;6212156;23;19994;-87
2022/03/09 16:10:12;;;;;;;8.77;7.32;;;;;;;;;;6237870;23;20117;-87
2022/03/09 16:12:42;;;;;;;9.43;8.05;;;;;;;;;;6238997;23;20321;-87
2022/03/09 16:15:21;;;;;;;13.20;7.95;;;;;;;;;;6240537;23;20055;-86
2022/03/09 16:17:58;;;;;;;14.75;8.52;;;;;;;;;;6243834;23;20074;-87
2022/03/09 16:20:24;;;;;;;11.70;7.60;;;;;;;;;;6252785;22;20039;-87
2022/03/09 16:22:50;;;;;;;9.65;7.90;;;;;;;;;;6258478;22;20071;-87
2022/03/09 16:25:20;;;;;;;10.43;7.93;;;;;;;;;;6193837;22;20028;-88
2022/03/09 16:27:57;;;;;;;10.18;7.90;;;;;;;;;;6220918;23;20025;-88
2022/03/09 16:30:24;;;;;;;9.00;7.70;;;;;;;;;;6212524;23;20082;-87
2022/03/09 16:32:51;;;;;;;10.77;7.30;;;;;;;;;;6155809;23;20017;-87
2022/03/09 16:35:17;;;;;;;8.85;7.13;;;;;;;;;;6133035;23;20048;-87
2022/03/09 16:37:43;;;;;;;9.00;7.07;;;;;;;;;;6193876;23;20076;-88
2022/03/09 16:40:10;;;;;;;9.55;8.00;;;;;;;;;;6210846;23;20353;-88
2022/03/09 16:42:38;;;;;;;10.23;7.40;;;;;;;;;;6187732;23;20401;-88
2022/03/09 16:45:17;;;;;;;11.20;7.47;;;;;;;;;;6185232;23;20028;-87
2022/03/09 16:47:44;;;;;;;12.65;7.90;;;;;;;;;;6211236;23;20041;-87
2022/03/09 16:50:21;;;;;;;12.07;7.88;;;;;;;;;;6183332;23;20801;-87
2022/03/09 16:59:46;;;;;;;11.20;7.63;;;;;;;;;;6152509;23;20053;-88
2022/03/09 17:02:12;;;;;;;12.73;8.38;;;;;;;;;;6177488;23;20386;-89
2022/03/09 17:04:39;;;;;;;9.88;8.07;;;;;;;;;;6103688;23;20021;-88
2022/03/09 17:07:08;;;;;;;15.57;8.15;;;;;;;;;;6126655;23;20500;-89
2022/03/09 17:09:34;;;;;;;11.77;8.52;;;;;;;;;;6151980;23;20469;-89
2022/03/09 17:12:00;;;;;;;11.85;8.88;;;;;;;;;;6177762;23;20450;-88
2022/03/09 17:14:26;;;;;;;12.00;7.95;;;;;;;;;;6176294;23;20347;-88
2022/03/09 17:16:53;;;;;;;11.32;8.20;;;;;;;;;;6125165;23;20079;-89
2022/03/09 17:19:21;;;;;;;14.63;8.23;;;;;;;;;;6176471;23;20353;-88
2022/03/09 17:21:50;;;;;;;11.40;8.27;;;;;;;;;;6127691;23;20021;-89
2022/03/09 17:24:16;;;;;;;13.63;8.45;;;;;;;;;;6125410;23;20357;-88
2022/03/09 17:26:43;;;;;;;11.38;8.15;;;;;;;;;;6125355;23;20021;-88
2022/03/09 17:34:54;;;;;;;12.27;8.27;;;;;;;;;;6227836;22;20038;-88
2022/03/09 17:37:23;;;;;;;13.40;8.50;;;;;;;;;;6230185;23;20024;-88
2022/03/09 17:39:50;;;;;;;11.65;9.13;;;;;;;;;;6157816;23;20027;-87
2022/03/09 17:42:22;;;;;;;10.95;8.63;;;;;;;;;;6178798;23;20020;-88
2022/03/09 17:44:48;;;;;;;10.73;7.97;;;;;;;;;;6183196;23;20088;-89
2022/03/09 17:47:26;;;;;;;12.40;9.15;;;;;;;;;;6178030;23;20016;-89
2022/03/09 17:49:55;;;;;;;10.23;7.75;;;;;;;;;;6234699;23;20098;-89
2022/03/09 17:55:57;;;;;;;15.15;10.25;;;;;;;;;;6233251;23;20039;-88
2022/03/09 17:58:48;;;;;;;14.37;8.73;;;;;;;;;;6177392;23;20035;-88
2022/03/09 18:01:43;;;;;;;12.52;8.57;;;;;;;;;;6179468;23;20663;-87
2022/03/09 18:04:09;;;;;;;11.55;8.90;;;;;;;;;;6205419;23;20016;-88
2022/03/09 18:06:35;;;;;;;11.32;8.40;;;;;;;;;;6206168;23;20024;-87
2022/03/09 18:09:01;;;;;;;13.50;8.10;;;;;;;;;;6232763;23;20031;-86
2022/03/09 18:11:27;;;;;;;16.90;9.00;;;;;;;;;;6180371;23;20526;-88
2022/03/09 18:13:53;;;;;;;11.60;8.45;;;;;;;;;;6181495;23;20444;-88
2022/03/09 18:16:23;;;;;;;14.48;8.27;;;;;;;;;;6205419;23;20024;-88
2022/03/09 18:18:55;;;;;;;16.75;8.50;;;;;;;;;;6205620;23;20448;-88
2022/03/09 18:21:21;;;;;;;11.30;8.32;;;;;;;;;;6232929;23;20027;-87
2022/03/09 18:23:51;;;;;;;15.05;8.68;;;;;;;;;;6158065;23;20023;-86
2022/03/09 18:26:24;;;;;;;11.95;8.73;;;;;;;;;;6205938;23;20024;-87
2022/03/09 18:28:50;;;;;;;13.63;8.75;;;;;;;;;;6181904;23;20024;-88
2022/03/09 18:31:26;;;;;;;13.18;8.95;;;;;;;;;;6182293;23;20020;-88
2022/03/09 18:33:58;;;;;;;18.42;9.40;;;;;;;;;;6208315;23;20024;-87
2022/03/09 18:36:24;;;;;;;11.95;8.15;;;;;;;;;;6235188;23;20023;-87
2022/03/09 18:38:51;;;;;;;11.30;8.75;;;;;;;;;;6184149;23;20016;-87
2022/03/09 18:41:27;;;;;;;12.63;9.20;;;;;;;;;;6171421;22;20054;-88
2022/03/09 18:44:02;;;;;;;13.27;9.23;;;;;;;;;;6227470;23;20341;-88
2022/03/09 18:46:29;;;;;;;12.98;8.90;;;;;;;;;;6210053;23;20024;-88
2022/03/09 18:48:58;;;;;;;20.60;9.98;;;;;;;;;;6232855;23;20055;-88
2022/03/09 18:51:34;;;;;;;14.65;9.75;;;;;;;;;;6180251;23;20016;-88
2022/03/09 18:54:00;;;;;;;14.27;8.70;;;;;;;;;;6206992;23;20020;-88
2022/03/09 18:56:27;;;;;;;11.90;9.13;;;;;;;;;;6205358;23;20020;-88
2022/03/09 18:58:57;;;;;;;13.00;9.20;;;;;;;;;;6181383;23;20193;-88
2022/03/09 19:01:26;;;;;;;13.38;8.93;;;;;;;;;;6204810;23;20085;-88
2022/03/09 19:03:52;;;;;;;18.63;11.73;;;;;;;;;;6231914;23;20020;-87
2022/03/09 19:06:18;;;;;;;21.08;13.30;;;;;;;;;;6229429;23;20027;-88
2022/03/09 19:08:44;;;;;;;23.35;14.50;;;;;;;;;;6231786;23;20826;-87
2022/03/09 19:11:11;;;;;;;22.67;14.60;;;;;;;;;;6231537;23;20024;-88
2022/03/09 19:13:37;;;;;;;23.45;14.00;;;;;;;;;;6230000;23;20810;-87
2022/03/09 19:16:03;;;;;;;21.65;14.43;;;;;;;;;;6232227;23;20016;-87
2022/03/09 19:18:48;;;;;;;21.77;13.27;;;;;;;;;;6231823;23;20055;-88
2022/03/09 19:21:17;;;;;;;17.05;12.55;;;;;;;;;;6206298;23;20095;-87
2022/03/09 19:23:43;;;;;;;16.27;10.95;;;;;;;;;;6231917;23;20026;-87
2022/03/09 19:26:10;;;;;;;16.38;12.70;;;;;;;;;;6204783;23;20027;-88
2022/03/09 19:28:51;;;;;;;18.33;12.52;;;;;;;;;;6204002;23;20023;-86
2022/03/09 19:31:18;;;;;;;16.02;11.00;;;;;;;;;;6229057;23;20628;-87
2022/03/09 19:33:44;;;;;;;15.73;11.30;;;;;;;;;;6204199;23;20028;-87
2022/03/09 19:36:16;;;;;;;13.93;11.00;;;;;;;;;;6153958;23;20028;-88
2022/03/09 19:38:43;;;;;;;13.60;10.55;;;;;;;;;;6206284;23;20020;-88
2022/03/09 19:41:09;;;;;;;20.50;12.20;;;;;;;;;;6204044;23;20046;-88
2022/03/09 19:43:42;;;;;;;14.80;11.35;;;;;;;;;;6232544;23;20052;-88
2022/03/09 19:46:08;;;;;;;15.38;11.70;;;;;;;;;;6232082;23;20024;-88
2022/03/09 19:48:50;;;;;;;19.42;12.27;;;;;;;;;;6232398;23;20107;-87
2022/03/09 19:51:22;;;;;;;22.08;12.95;;;;;;;;;;6230727;23;20023;-88
2022/03/09 19:53:49;;;;;;;15.65;11.93;;;;;;;;;;6233335;23;20020;-89
2022/03/09 19:56:22;;;;;;;20.20;12.93;;;;;;;;;;6229842;23;20364;-86
2022/03/09 19:58:48;;;;;;;19.73;12.57;;;;;;;;;;6231668;23;20364;-88
2022/03/09 20:01:21;;;;;;;16.75;12.43;;;;;;;;;;6208640;23;20054;-85
2022/03/09 20:03:57;;;;;;;15.85;11.80;;;;;;;;;;6235756;23;20028;-88
2022/03/09 20:06:24;;;;;;;15.25;11.48;;;;;;;;;;6208294;23;20034;-90
2022/03/09 20:11:26;;;;;;;17.80;11.52;;;;;;;;;;6236242;22;20034;-87
2022/03/09 20:13:53;;;;;;;15.73;11.93;;;;;;;;;;6181510;23;20051;-87
2022/03/09 20:16:19;;;;;;;17.05;11.85;;;;;;;;;;6155192;23;20110;-90
2022/03/09 20:18:45;;;;;;;14.48;10.95;;;;;;;;;;6178238;23;20020;-88
2022/03/09 20:21:12;;;;;;;16.60;11.02;;;;;;;;;;6233830;23;20016;-86
2022/03/09 20:23:44;;;;;;;16.85;11.10;;;;;;;;;;6207201;23;20481;-89
2022/03/09 20:26:17;;;;;;;20.63;12.40;;;;;;;;;;6235855;23;20020;-90
2022/03/09 20:28:53;;;;;;;16.05;11.15;;;;;;;;;;6227680;23;20341;-89
2022/03/09 20:31:19;;;;;;;15.75;10.93;;;;;;;;;;6204632;23;20034;-87
2022/03/09 20:33:45;;;;;;;17.58;13.50;;;;;;;;;;6202040;23;20016;-91
2022/03/09 20:36:11;;;;;;;17.52;14.65;;;;;;;;;;6155423;23;20468;-90
2022/03/09 20:38:47;;;;;;;23.75;16.15;;;;;;;;;;6230246;23;20400;-88
2022/03/09 20:41:13;;;;;;;18.73;14.15;;;;;;;;;;6204150;23;20035;-89
2022/03/09 20:43:42;;;;;;;19.27;12.93;;;;;;;;;;6203119;23;20758;-89
2022/03/09 20:46:14;;;;;;;23.23;14.02;;;;;;;;;;6205632;23;20024;-90
2022/03/09 20:48:47;;;;;;;20.90;12.95;;;;;;;;;;6230425;23;20024;-89
2022/03/09 20:51:13;;;;;;;19.08;11.68;;;;;;;;;;6181889;23;20048;-89
2022/03/09 20:53:39;;;;;;;15.63;12.15;;;;;;;;;;6233447;23;20019;-89
2022/03/09 20:56:05;;;;;;;19.27;13.23;;;;;;;;;;6214709;23;20020;-88
2022/03/09 20:58:31;;;;;;;19.23;13.05;;;;;;;;;;6196399;23;20183;-89
2022/03/09 21:01:17;;;;;;;22.17;13.02;;;;;;;;;;6221100;23;20027;-86
2022/03/09 21:03:49;;;;;;;22.13;13.00;;;;;;;;;;6210826;23;20020;-90
2022/03/09 21:06:22;;;;;;;24.40;13.23;;;;;;;;;;6230132;23;20035;-86
2022/03/09 21:08:48;;;;;;;20.27;13.18;;;;;;;;;;6230136;23;20460;-89
2022/03/09 21:11:23;;;;;;;19.67;12.77;;;;;;;;;;6174481;23;20055;-89
2022/03/09 21:13:51;;;;;;;15.93;11.48;;;;;;;;;;6203549;23;20024;-87
2022/03/09 21:16:28;;;;;;;17.10;12.30;;;;;;;;;;6203982;23;20059;-89
2022/03/09 21:18:55;;;;;;;17.92;12.93;;;;;;;;;;6204357;23;20107;-86
2022/03/09 21:21:27;;;;;;;21.38;14.00;;;;;;;;;;6225964;23;20255;-89
2022/03/09 21:23:59;;;;;;;21.60;14.43;;;;;;;;;;6230971;23;20063;-88
2022/03/09 21:26:25;;;;;;;19.13;13.88;;;;;;;;;;6226863;23;20024;-86
2022/03/09 21:32:14;;;;;;;17.40;13.43;;;;;;;;;;6233149;23;20073;-86
2022/03/09 21:34:59;;;;;;;16.65;13.43;;;;;;;;;;6230850;23;20020;-88
2022/03/09 21:37:26;;;;;;;28.05;17.70;;;;;;;;;;6227702;23;20480;-88
2022/03/09 21:39:52;;;;;;;20.30;14.23;;;;;;;;;;6231045;23;20040;-88
2022/03/09 21:42:18;;;;;;;18.98;14.15;;;;;;;;;;6207782;23;20076;-86
2022/03/09 21:44:50;;;;;;;20.88;14.02;;;;;;;;;;6206678;23;20020;-89
2022/03/09 21:47:23;;;;;;;21.65;14.52;;;;;;;;;;6226527;23;20047;-88
2022/03/09 21:49:53;;;;;;;18.63;13.20;;;;;;;;;;6234312;23;20020;-87
2022/03/09 21:52:29;;;;;;;17.33;12.57;;;;;;;;;;6202945;23;20868;-87
2022/03/09 21:54:55;;;;;;;24.40;13.20;;;;;;;;;;6234196;23;20090;-88
2022/03/09 21:57:21;;;;;;;20.40;14.40;;;;;;;;;;6226836;23;20020;-86
2022/03/09 22:00:00;;;;;;;17.88;12.80;;;;;;;;;;6229868;23;20031;-88
2022/03/09 22:02:26;;;;;;;18.88;12.30;;;;;;;;;;6232345;23;20031;-88
2022/03/09 22:04:59;;;;;;;24.50;13.95;;;;;;;;;;6188331;23;20058;-87
2022/03/09 22:07:25;;;;;;;17.23;13.02;;;;;;;;;;6234736;23;20033;-85
2022/03/09 22:09:52;;;;;;;22.08;13.77;;;;;;;;;;6205363;23;20020;-87
2022/03/09 22:12:18;;;;;;;18.42;13.73;;;;;;;;;;6228814;23;20486;-87
2022/03/09 22:15:09;;;;;;;19.45;13.75;;;;;;;;;;6230858;23;20016;-86
2022/03/09 22:18:00;;;;;;;18.50;12.75;;;;;;;;;;6227900;23;20444;-86
2022/03/09 22:23:42;;;;;;;21.85;12.90;;;;;;;;;;6218678;23;20114;-87
2022/03/09 22:26:09;;;;;;;20.00;13.30;;;;;;;;;;6208525;23;20526;-86
2022/03/09 22:28:41;;;;;;;20.65;13.52;;;;;;;;;;6233356;23;20026;-85
2022/03/09 22:31:07;;;;;;;19.92;13.73;;;;;;;;;;6208408;23;20034;-87
2022/03/09 22:33:49;;;;;;;21.48;14.85;;;;;;;;;;6233971;23;20024;-86
2022/03/09 22:36:19;;;;;;;22.88;13.85;;;;;;;;;;6208809;23;20846;-87
2022/03/09 22:38:45;;;;;;;23.25;13.50;;;;;;;;;;6181751;23;20087;-86
2022/03/09 22:41:15;;;;;;;20.30;14.25;;;;;;;;;;6178244;23;20020;-85
2022/03/09 22:43:41;;;;;;;21.65;13.52;;;;;;;;;;6148771;23;20035;-86
2022/03/09 22:46:16;;;;;;;19.75;12.90;;;;;;;;;;6203633;23;20602;-84
2022/03/09 22:48:42;;;;;;;18.42;13.93;;;;;;;;;;6148181;23;20445;-85
2022/03/09 22:51:09;;;;;;;19.65;13.63;;;;;;;;;;6151564;23;20036;-88
2022/03/09 22:53:38;;;;;;;20.92;12.85;;;;;;;;;;6200558;23;20017;-84
2022/03/09 22:56:04;;;;;;;23.20;14.02;;;;;;;;;;6151552;23;20024;-86
2022/03/09 22:58:31;;;;;;;22.50;14.55;;;;;;;;;;6202247;23;20013;-85
2022/03/09 23:00:57;;;;;;;20.88;13.75;;;;;;;;;;6203789;23;20024;-88
2022/03/09 23:03:29;;;;;;;26.27;14.50;;;;;;;;;;6176634;23;20113;-88
2022/03/09 23:05:55;;;;;;;19.10;14.38;;;;;;;;;;6153007;23;20358;-88
2022/03/09 23:08:21;;;;;;;26.05;13.68;;;;;;;;;;6202724;23;20016;-89
2022/03/09 23:10:48;;;;;;;19.33;12.93;;;;;;;;;;6178368;23;20017;-87
2022/03/09 23:13:21;;;;;;;21.27;13.55;;;;;;;;;;6159181;23;20159;-87
2022/03/09 23:15:47;;;;;;;16.98;13.40;;;;;;;;;;6192284;23;20067;-89
2022/03/09 23:18:13;;;;;;;22.08;14.25;;;;;;;;;;6188088;23;20095;-87
2022/03/09 23:20:39;;;;;;;24.63;14.60;;;;;;;;;;6182224;23;20100;-84
2022/03/09 23:23:09;;;;;;;21.75;14.43;;;;;;;;;;6154828;23;20012;-85
2022/03/09 23:25:35;;;;;;;24.77;14.60;;;;;;;;;;6156567;23;20017;-85
2022/03/09 23:28:03;;;;;;;19.65;13.98;;;;;;;;;;6206571;23;20020;-87
2022/03/09 23:30:30;;;;;;;24.33;14.68;;;;;;;;;;6206429;23;20020;-86
2022/03/09 23:32:59;;;;;;;20.27;14.85;;;;;;;;;;6205599;23;20024;-86
2022/03/09 23:35:26;;;;;;;23.92;13.82;;;;;;;;;;6207448;23;20024;-88
2022/03/09 23:37:52;;;;;;;19.52;13.65;;;;;;;;;;6205557;23;20535;-84
2022/03/09 23:40:18;;;;;;;22.92;14.75;;;;;;;;;;6207372;23;20024;-87
2022/03/09 23:42:45;;;;;;;21.05;14.85;;;;;;;;;;6207430;23;20024;-87
2022/03/09 23:45:13;;;;;;;25.05;14.43;;;;;;;;;;6155903;23;20024;-89
2022/03/09 23:47:42;;;;;;;19.13;14.18;;;;;;;;;;6180410;23;20469;-89
2022/03/09 23:50:09;;;;;;;18.65;14.00;;;;;;;;;;6205182;23;20020;-84
2022/03/09 23:53:04;;;;;;;23.67;14.65;;;;;;;;;;6183869;23;21314;-88
2022/03/09 23:55:30;;;;;;;27.77;15.38;;;;;;;;;;6236462;23;20012;-87